Time;durP1;ratioP1;P1;durP2;ratioP2;P2;SDS_P1;SDS_P2;PMS_P1;PMS_P2;Temp;Humidity;BMP_temperature;BMP_pressure;BME280_temperature;BME280_humidity;BME280_pressure;Samples;Min_cycle;Max_cycle;Signal;HPM_P1;HPM_P2
2023/07/12 00:00:56;;;;;;;2.33;1.60;;;;;;;21.60;100.00;96201.50;5053681;28;20205;-66
2023/07/12 00:03:22;;;;;;;3.00;1.42;;;;;;;21.73;100.00;96187.75;5053551;28;20209;-67
2023/07/12 00:05:49;;;;;;;1.90;1.50;;;;;;;21.86;100.00;96193.56;5053241;28;20658;-67
2023/07/12 00:08:20;;;;;;;4.30;1.38;;;;;;;21.99;100.00;96201.25;5090729;28;20220;-67
2023/07/12 00:10:49;;;;;;;4.00;1.17;;;;;;;21.49;100.00;96215.78;5093547;28;20200;-67
2023/07/12 00:13:16;;;;;;;3.30;1.25;;;;;;;21.87;100.00;96235.44;5093663;28;20207;-67
2023/07/12 00:15:43;;;;;;;4.70;2.00;;;;;;;22.00;100.00;96256.56;5093315;28;20652;-67
2023/07/12 00:18:13;;;;;;;3.00;1.05;;;;;;;22.16;100.00;96253.03;5092894;28;20712;-67
2023/07/12 00:20:40;;;;;;;3.72;1.50;;;;;;;22.13;100.00;96237.41;5092398;28;20600;-67
2023/07/12 00:23:08;;;;;;;2.45;1.38;;;;;;;21.97;100.00;96248.19;5093203;28;20208;-67
2023/07/12 00:25:34;;;;;;;2.15;1.10;;;;;;;22.12;100.00;96243.84;5093519;28;20207;-67
2023/07/12 00:28:03;;;;;;;7.45;1.30;;;;;;;21.93;100.00;96239.00;5092760;28;20558;-67
2023/07/12 00:30:36;;;;;;;8.18;1.60;;;;;;;21.62;100.00;96234.25;5093332;28;20249;-67
2023/07/12 00:33:03;;;;;;;4.00;1.75;;;;;;;21.57;100.00;96194.75;5092918;28;20204;-67
2023/07/12 00:35:32;;;;;;;3.85;1.17;;;;;;;21.37;100.00;96193.59;5093024;28;20291;-66
2023/07/12 00:38:01;;;;;;;2.13;1.23;;;;;;;21.51;100.00;96182.34;5092614;28;20251;-66
2023/07/12 00:41:00;;;;;;;2.97;1.17;;;;;;;21.71;100.00;96155.00;5093144;28;20214;-67
2023/07/12 00:43:32;;;;;;;1.88;1.00;;;;;;;21.82;100.00;96152.22;5092817;28;20665;-66
2023/07/12 00:46:02;;;;;;;3.17;0.95;;;;;;;21.59;100.00;96187.28;5092879;28;20704;-67
2023/07/12 00:48:28;;;;;;;2.38;1.15;;;;;;;21.73;100.00;96206.53;5092460;28;20234;-67
2023/07/12 00:50:55;;;;;;;1.98;1.08;;;;;;;21.92;100.00;96197.97;5092968;28;20208;-66
2023/07/12 00:53:24;;;;;;;2.83;1.23;;;;;;;21.91;100.00;96177.56;5092554;28;20617;-66
2023/07/12 00:55:58;;;;;;;1.73;1.15;;;;;;;21.83;100.00;96155.69;5092688;28;20208;-66
2023/07/12 00:58:26;;;;;;;3.35;1.52;;;;;;;21.58;100.00;96120.50;5068388;28;20236;-66
2023/07/12 01:00:56;;;;;;;3.45;1.27;;;;;;;21.56;100.00;96090.41;5052462;28;20697;-66
2023/07/12 01:03:23;;;;;;;5.38;1.40;;;;;;;21.63;100.00;96121.34;5052314;28;20291;-66
2023/07/12 01:05:50;;;;;;;1.85;1.10;;;;;;;21.64;100.00;96111.47;5066291;28;20672;-66
2023/07/12 01:08:17;;;;;;;2.53;1.20;;;;;;;21.55;100.00;96112.94;5092093;28;20234;-66
2023/07/12 01:10:43;;;;;;;1.70;1.35;;;;;;;21.59;100.00;96097.97;5092642;28;20649;-66
2023/07/12 01:13:10;;;;;;;8.88;1.17;;;;;;;21.63;100.00;96094.53;5092419;28;20208;-66
2023/07/12 01:15:37;;;;;;;4.38;1.38;;;;;;;21.74;100.00;96106.22;5092326;28;20208;-66
2023/07/12 01:18:07;;;;;;;2.35;1.20;;;;;;;21.91;100.00;96107.78;5091981;28;20231;-66
2023/07/12 01:20:36;;;;;;;4.20;1.30;;;;;;;21.80;100.00;96100.66;5088925;28;20235;-66
2023/07/12 01:23:05;;;;;;;2.28;1.15;;;;;;;22.05;100.00;96096.41;5092173;28;20208;-66
2023/07/12 01:25:35;;;;;;;3.47;1.10;;;;;;;22.05;100.00;96091.03;5091969;28;20207;-66
2023/07/12 01:28:02;;;;;;;1.27;1.00;;;;;;;21.96;100.00;96082.88;5091929;28;20210;-66
2023/07/12 01:30:29;;;;;;;2.15;1.10;;;;;;;22.07;100.00;96048.66;5091805;28;20672;-66
2023/07/12 01:32:55;;;;;;;3.05;1.33;;;;;;;21.75;100.00;96033.53;5092148;28;20215;-66
2023/07/12 01:35:22;;;;;;;1.95;1.45;;;;;;;21.32;100.00;96005.91;5091787;28;20217;-67
2023/07/12 01:37:48;;;;;;;1.38;0.98;;;;;;;21.35;100.00;95967.06;5091481;28;20228;-67
2023/07/12 01:40:16;;;;;;;5.38;1.10;;;;;;;21.31;100.00;95949.81;5091845;28;20684;-67
2023/07/12 01:42:43;;;;;;;3.15;1.33;;;;;;;21.14;100.00;95936.53;5092018;28;20204;-67
2023/07/12 01:45:10;;;;;;;1.90;1.27;;;;;;;21.24;100.00;95917.84;5092037;28;20207;-67
2023/07/12 01:47:37;;;;;;;5.72;1.20;;;;;;;21.07;100.00;95930.50;5091521;28;20252;-67
2023/07/12 01:50:04;;;;;;;4.18;1.38;;;;;;;21.54;100.00;95950.44;5091843;28;20223;-67
2023/07/12 01:52:30;;;;;;;3.80;1.23;;;;;;;21.48;100.00;95959.44;5091547;28;20195;-67
2023/07/12 01:54:57;;;;;;;4.05;1.05;;;;;;;21.56;100.00;95967.06;5092072;28;20207;-67
2023/07/12 01:57:25;;;;;;;2.30;1.35;;;;;;;21.84;100.00;95950.75;5084486;28;20891;-67
2023/07/12 01:59:51;;;;;;;4.55;1.30;;;;;;;21.74;100.00;95958.66;5051692;28;20236;-67
2023/07/12 02:02:18;;;;;;;2.10;1.30;;;;;;;21.71;100.00;95941.22;5051473;28;20209;-67
2023/07/12 02:04:44;;;;;;;3.65;1.75;;;;;;;21.96;100.00;95927.22;5051649;28;20213;-67
2023/07/12 02:07:11;;;;;;;2.83;1.30;;;;;;;21.50;100.00;95943.91;5070639;28;20196;-67
2023/07/12 02:09:40;;;;;;;2.70;1.38;;;;;;;21.88;100.00;95968.78;5091819;28;20270;-67
2023/07/12 02:12:08;;;;;;;2.88;1.60;;;;;;;21.95;100.00;95931.00;5091676;28;20222;-67
2023/07/12 02:14:35;;;;;;;2.45;1.45;;;;;;;22.06;100.00;95920.91;5091576;28;20743;-67
2023/07/12 02:17:02;;;;;;;6.72;1.92;;;;;;;22.05;100.00;95923.84;5091265;28;20207;-67
2023/07/12 02:19:28;;;;;;;7.13;1.98;;;;;;;21.82;100.00;95923.38;5091246;28;20850;-67
2023/07/12 02:21:55;;;;;;;4.35;2.20;;;;;;;22.05;100.00;95921.16;5091781;28;20203;-67
2023/07/12 02:24:21;;;;;;;4.80;1.90;;;;;;;21.97;100.00;95935.06;5091500;28;20212;-67
2023/07/12 02:26:47;;;;;;;6.45;2.10;;;;;;;21.76;100.00;95938.59;5091730;28;20207;-67
2023/07/12 02:29:14;;;;;;;3.35;1.60;;;;;;;21.69;100.00;95927.25;5090952;28;20705;-67
2023/07/12 02:31:42;;;;;;;4.38;2.15;;;;;;;21.98;100.00;95917.88;5091523;28;20215;-67
2023/07/12 02:34:08;;;;;;;11.93;2.30;;;;;;;22.15;100.00;95927.44;5091286;28;20234;-67
2023/07/12 02:36:34;;;;;;;4.60;1.52;;;;;;;22.29;100.00;95919.81;5091334;28;20208;-67
2023/07/12 02:39:01;;;;;;;4.57;1.70;;;;;;;22.35;100.00;95921.44;5091024;28;20235;-67
2023/07/12 02:41:27;;;;;;;3.65;1.30;;;;;;;21.98;100.00;95920.56;5091522;28;20214;-67
2023/07/12 02:43:54;;;;;;;3.38;1.67;;;;;;;21.97;100.00;95932.38;5093823;28;20211;-67
2023/07/12 02:46:20;;;;;;;2.70;1.52;;;;;;;22.16;100.00;95928.22;5094994;28;20211;-67
2023/07/12 02:48:48;;;;;;;8.82;2.40;;;;;;;22.25;100.00;95924.84;5094794;28;20224;-67
2023/07/12 02:51:14;;;;;;;1.98;1.40;;;;;;;22.47;100.00;95930.13;5095222;28;20203;-67
2023/07/12 02:53:41;;;;;;;5.18;1.90;;;;;;;22.29;100.00;95912.53;5095201;28;20227;-67
2023/07/12 02:56:07;;;;;;;4.13;1.92;;;;;;;22.42;100.00;95914.00;5094935;28;20200;-67
2023/07/12 02:58:34;;;;;;;4.68;1.80;;;;;;;22.63;100.00;95923.78;5068280;28;20233;-67
2023/07/12 03:01:00;;;;;;;5.00;2.45;;;;;;;22.56;100.00;95912.47;5061749;28;20674;-67
2023/07/12 03:03:27;;;;;;;6.30;2.88;;;;;;;22.48;100.00;95904.88;5074545;28;20208;-67
2023/07/12 03:05:55;;;;;;;5.53;2.42;;;;;;;22.86;100.00;95908.06;5074328;28;20204;-67
2023/07/12 03:08:21;;;;;;;7.28;2.72;;;;;;;22.51;100.00;95899.81;5073964;28;20224;-67
2023/07/12 03:10:48;;;;;;;5.35;2.55;;;;;;;22.62;100.00;95903.38;5074292;28;20209;-67
2023/07/12 03:13:14;;;;;;;3.65;1.83;;;;;;;22.53;100.00;95903.06;5074510;28;20208;-67
2023/07/12 03:15:41;;;;;;;4.18;2.00;;;;;;;22.77;100.00;95901.56;5074463;28;20205;-67
2023/07/12 03:18:07;;;;;;;5.03;1.85;;;;;;;22.49;100.00;95895.75;5073742;28;20602;-67
2023/07/12 03:20:34;;;;;;;2.58;1.60;;;;;;;22.22;100.00;95884.25;5074356;28;20209;-67
2023/07/12 03:23:01;;;;;;;7.90;2.03;;;;;;;22.68;100.00;95895.06;5073940;28;20261;-67
2023/07/12 03:25:28;;;;;;;3.50;1.88;;;;;;;22.39;100.00;95885.78;5074401;28;20208;-67
2023/07/12 03:27:54;;;;;;;5.00;2.10;;;;;;;22.48;100.00;95881.53;5073676;28;20204;-67
2023/07/12 03:30:21;;;;;;;5.15;1.63;;;;;;;22.35;100.00;95873.94;5074148;28;20245;-67
2023/07/12 03:32:47;;;;;;;3.92;1.80;;;;;;;22.56;100.00;95873.00;5073838;28;20666;-67
2023/07/12 03:35:14;;;;;;;3.53;2.25;;;;;;;22.60;100.00;95876.78;5074038;28;20284;-67
2023/07/12 03:37:40;;;;;;;4.95;1.98;;;;;;;22.51;100.00;95881.00;5073231;28;20573;-67
2023/07/12 03:40:09;;;;;;;3.90;2.45;;;;;;;22.75;100.00;95883.03;5073341;28;20594;-67
2023/07/12 03:42:35;;;;;;;4.20;1.70;;;;;;;22.61;100.00;95882.97;5073671;28;20208;-67
2023/07/12 03:45:02;;;;;;;4.20;2.00;;;;;;;22.51;100.00;95881.00;5073740;28;20731;-67
2023/07/12 03:47:28;;;;;;;5.78;1.65;;;;;;;22.51;100.00;95875.63;5073621;28;20208;-67
2023/07/12 03:49:55;;;;;;;5.75;2.03;;;;;;;22.63;100.00;95884.28;5073429;28;20572;-67
2023/07/12 03:52:22;;;;;;;4.30;2.13;;;;;;;22.68;100.00;95895.91;5073893;28;20254;-67
2023/07/12 03:54:48;;;;;;;6.18;2.63;;;;;;;22.57;100.00;95904.16;5073519;28;20208;-67
2023/07/12 03:57:16;;;;;;;6.40;2.08;;;;;;;22.70;100.00;95909.06;5073291;28;20208;-67
2023/07/12 03:59:43;;;;;;;4.07;2.05;;;;;;;22.53;100.00;95908.44;5073185;28;20224;-67
2023/07/12 04:02:09;;;;;;;4.70;2.08;;;;;;;22.56;100.00;95909.78;5091546;28;20207;-67
2023/07/12 04:04:36;;;;;;;5.35;2.00;;;;;;;22.26;100.00;95901.50;5093298;28;20611;-67
2023/07/12 04:07:02;;;;;;;3.55;1.75;;;;;;;22.18;100.00;95893.91;5093345;28;20203;-67
2023/07/12 04:09:29;;;;;;;5.75;2.20;;;;;;;22.18;100.00;95891.22;5093624;28;20227;-67
2023/07/12 04:11:55;;;;;;;7.32;2.83;;;;;;;22.15;100.00;95879.13;5093858;28;20583;-68
2023/07/12 04:14:23;;;;;;;4.13;2.03;;;;;;;22.27;100.00;95881.66;5093274;28;20211;-68
2023/07/12 04:16:50;;;;;;;4.05;2.13;;;;;;;22.18;100.00;95875.91;5093346;28;20301;-68
2023/07/12 04:19:16;;;;;;;3.72;1.98;;;;;;;22.19;100.00;95882.09;5092744;28;20227;-68
2023/07/12 04:21:43;;;;;;;3.83;2.22;;;;;;;21.97;100.00;95885.94;5093598;28;20208;-68
2023/07/12 04:24:09;;;;;;;3.40;1.95;;;;;;;22.14;100.00;95895.47;5093512;28;20586;-68
2023/07/12 04:26:37;;;;;;;4.35;2.17;;;;;;;21.92;100.00;95889.38;5093207;28;20226;-68
2023/07/12 04:29:04;;;;;;;4.43;1.90;;;;;;;22.00;100.00;95882.75;5093035;28;20217;-68
2023/07/12 04:31:31;;;;;;;6.78;1.92;;;;;;;22.31;100.00;95878.22;5092884;28;20214;-68
2023/07/12 04:33:58;;;;;;;6.00;2.40;;;;;;;22.05;100.00;95881.72;5093269;28;20220;-68
2023/07/12 04:36:24;;;;;;;5.60;2.15;;;;;;;22.02;100.00;95888.66;5092791;28;20204;-68
2023/07/12 04:38:51;;;;;;;3.65;2.08;;;;;;;22.24;100.00;95893.69;5092691;28;20246;-68
2023/07/12 04:41:17;;;;;;;5.55;2.10;;;;;;;22.62;100.00;95890.75;5092807;28;20583;-68
2023/07/12 04:43:44;;;;;;;4.57;1.65;;;;;;;22.83;100.00;95892.47;5093142;28;20196;-68
2023/07/12 04:46:10;;;;;;;3.55;2.10;;;;;;;22.92;100.00;95898.97;5092611;28;20880;-68
2023/07/12 04:48:38;;;;;;;3.75;2.00;;;;;;;22.59;100.00;95901.22;5092563;28;20306;-68
2023/07/12 04:51:05;;;;;;;3.53;2.50;;;;;;;22.42;100.00;95885.25;5092928;28;20199;-68
2023/07/12 04:53:32;;;;;;;4.35;2.22;;;;;;;22.62;100.00;95896.13;5092544;28;20229;-68
2023/07/12 04:55:59;;;;;;;5.32;2.08;;;;;;;22.89;100.00;95907.56;5092784;28;20574;-68
2023/07/12 04:58:26;;;;;;;5.93;2.42;;;;;;;22.87;100.00;95909.69;5068280;28;20253;-68
2023/07/12 05:00:53;;;;;;;4.03;1.75;;;;;;;22.86;100.00;95914.28;5066973;28;20273;-68
2023/07/12 05:03:19;;;;;;;7.28;2.33;;;;;;;22.97;100.00;95915.94;5092504;28;20587;-68
2023/07/12 05:05:47;;;;;;;9.15;2.35;;;;;;;22.61;100.00;95918.69;5091948;28;20665;-68
2023/07/12 05:08:15;;;;;;;8.10;2.00;;;;;;;22.77;100.00;95934.66;5092029;28;20215;-67
2023/07/12 05:10:42;;;;;;;4.03;2.15;;;;;;;22.94;100.00;95937.16;5092520;28;20208;-67
2023/07/12 05:13:08;;;;;;;3.80;2.38;;;;;;;23.33;100.00;95931.19;5092220;28;20669;-67
2023/07/12 05:15:34;;;;;;;3.90;2.10;;;;;;;23.21;100.00;95932.50;5090437;28;20211;-68
2023/07/12 05:18:01;;;;;;;4.57;2.10;;;;;;;23.18;100.00;95943.75;5091440;28;20214;-67
2023/07/12 05:20:28;;;;;;;3.10;2.00;;;;;;;23.17;100.00;95931.41;5088679;28;20196;-67
2023/07/12 05:22:56;;;;;;;3.40;2.10;;;;;;;23.31;100.00;95939.53;5092265;28;20206;-68
2023/07/12 05:25:22;;;;;;;4.47;2.45;;;;;;;23.04;100.00;95942.59;5092152;28;20217;-68
2023/07/12 05:27:49;;;;;;;4.82;2.22;;;;;;;22.96;100.00;95943.91;5091657;28;20226;-68
2023/07/12 05:30:15;;;;;;;3.22;2.33;;;;;;;22.72;100.00;95952.59;5092072;28;20207;-68
2023/07/12 05:32:42;;;;;;;3.80;2.15;;;;;;;22.51;100.00;95976.91;5092236;28;20204;-68
2023/07/12 05:35:09;;;;;;;4.88;2.67;;;;;;;22.40;100.00;95978.69;5091795;28;20207;-68
2023/07/12 05:37:36;;;;;;;4.13;1.75;;;;;;;22.43;100.00;95969.28;5091815;28;20206;-68
2023/07/12 05:40:05;;;;;;;5.72;2.67;;;;;;;22.56;100.00;95980.44;5091758;28;20254;-68
2023/07/12 05:42:32;;;;;;;6.80;2.05;;;;;;;22.26;100.00;95977.50;5091968;28;20207;-68
2023/07/12 05:44:58;;;;;;;2.33;1.63;;;;;;;22.04;100.00;95972.41;5091992;28;20629;-68
2023/07/12 05:47:24;;;;;;;2.60;1.60;;;;;;;22.36;100.00;95966.81;5088725;28;20212;-68
2023/07/12 05:49:51;;;;;;;4.40;1.83;;;;;;;22.44;100.00;95963.69;5085261;28;20232;-68
2023/07/12 05:52:17;;;;;;;6.65;2.33;;;;;;;22.58;100.00;95966.72;5085386;28;20203;-68
2023/07/12 05:54:44;;;;;;;3.47;2.05;;;;;;;22.14;100.00;95963.38;5085429;28;20224;-68
2023/07/12 05:57:12;;;;;;;3.28;1.60;;;;;;;22.29;100.00;95963.56;5084325;28;20850;-68
2023/07/12 05:59:38;;;;;;;2.97;1.67;;;;;;;22.04;100.00;95974.00;5085662;28;20228;-68
2023/07/12 06:02:06;;;;;;;3.67;2.20;;;;;;;22.32;100.00;95986.41;5085027;28;20692;-68
2023/07/12 06:04:33;;;;;;;3.35;1.80;;;;;;;22.31;100.00;96000.88;5085375;28;20200;-68
2023/07/12 06:06:59;;;;;;;3.92;1.65;;;;;;;22.12;100.00;95989.69;5084432;28;20303;-69
2023/07/12 06:09:27;;;;;;;6.72;2.20;;;;;;;22.16;100.00;95990.78;5085417;28;20220;-70
2023/07/12 06:11:53;;;;;;;3.47;1.98;;;;;;;22.17;100.00;96000.47;5084953;28;20215;-70
2023/07/12 06:14:21;;;;;;;3.67;2.30;;;;;;;22.43;100.00;96009.56;5085348;28;21893;-70
2023/07/12 06:16:48;;;;;;;7.90;2.03;;;;;;;22.33;100.00;96015.66;5085116;28;20208;-70
2023/07/12 06:19:14;;;;;;;3.22;1.75;;;;;;;22.34;100.00;96030.72;5087193;28;20238;-70
2023/07/12 06:21:41;;;;;;;2.83;1.75;;;;;;;22.20;100.00;96048.28;5088960;28;20230;-70
2023/07/12 06:24:08;;;;;;;3.83;1.98;;;;;;;22.35;100.00;96044.94;5089201;28;20204;-70
2023/07/12 06:26:34;;;;;;;6.93;1.83;;;;;;;22.22;100.00;96048.84;5089114;28;20211;-70
2023/07/12 06:29:01;;;;;;;6.25;2.05;;;;;;;22.29;100.00;96046.78;5071089;28;20245;-69
2023/07/12 06:31:29;;;;;;;3.60;1.85;;;;;;;22.25;100.00;96052.88;5073217;28;20204;-69
2023/07/12 06:33:59;;;;;;;6.57;1.77;;;;;;;22.78;100.00;96054.50;5089121;28;20594;-69
2023/07/12 06:36:25;;;;;;;2.95;1.67;;;;;;;22.58;100.00;96061.56;5089493;28;20233;-69
2023/07/12 06:38:52;;;;;;;3.00;1.92;;;;;;;22.41;100.00;96055.47;5087877;28;20945;-70
2023/07/12 06:41:18;;;;;;;3.40;1.98;;;;;;;22.46;100.00;96046.69;5088619;28;20677;-70
2023/07/12 06:43:45;;;;;;;4.57;1.50;;;;;;;22.50;100.00;96053.94;5088828;28;20207;-69
2023/07/12 06:46:11;;;;;;;4.03;2.05;;;;;;;22.67;100.00;96057.34;5088671;28;20219;-69
2023/07/12 06:48:40;;;;;;;4.18;2.28;;;;;;;23.09;100.00;96047.47;5087541;28;20678;-69
2023/07/12 06:51:06;;;;;;;4.05;1.27;;;;;;;22.61;100.00;96065.63;5088354;28;20208;-69
2023/07/12 06:53:33;;;;;;;5.75;1.73;;;;;;;22.64;100.00;96067.78;5088563;28;20196;-68
2023/07/12 06:55:59;;;;;;;3.88;2.15;;;;;;;22.67;100.00;96060.84;5088451;28;20211;-69
2023/07/12 06:58:26;;;;;;;4.95;1.50;;;;;;;22.83;100.00;96056.41;5087198;28;20598;-68
2023/07/12 07:00:52;;;;;;;4.13;1.85;;;;;;;23.00;100.00;96065.16;5088403;28;20203;-68
2023/07/12 07:03:19;;;;;;;4.07;1.88;;;;;;;22.84;100.00;96061.50;5088197;28;20590;-68
2023/07/12 07:05:48;;;;;;;3.22;1.70;;;;;;;23.58;100.00;96058.53;5087969;28;20665;-69
2023/07/12 07:08:17;;;;;;;3.72;1.50;;;;;;;23.34;100.00;96062.72;5087350;28;20238;-69
2023/07/12 07:10:43;;;;;;;2.97;1.70;;;;;;;23.23;100.00;96056.72;5088308;28;20207;-69
2023/07/12 07:13:10;;;;;;;2.78;1.52;;;;;;;23.45;100.00;96056.31;5088315;28;20208;-69
2023/07/12 07:15:37;;;;;;;3.83;1.55;;;;;;;23.65;100.00;96064.50;5087738;28;20755;-69
2023/07/12 07:18:03;;;;;;;3.85;1.70;;;;;;;23.76;100.00;96071.56;5086912;28;20804;-69
2023/07/12 07:20:30;;;;;;;2.50;1.85;;;;;;;23.92;100.00;96070.56;5087909;28;20219;-69
2023/07/12 07:22:58;;;;;;;2.70;1.60;;;;;;;23.80;100.00;96066.47;5088024;28;20211;-68
2023/07/12 07:25:28;;;;;;;4.47;1.65;;;;;;;23.85;100.00;96067.28;5087739;28;20204;-69
2023/07/12 07:27:54;;;;;;;6.18;1.77;;;;;;;23.70;100.00;96061.88;5086902;28;20207;-68
2023/07/12 07:30:21;;;;;;;4.85;1.67;;;;;;;23.70;100.00;96061.88;5086904;28;20490;-69
2023/07/12 07:32:47;;;;;;;3.22;1.50;;;;;;;23.40;100.00;96063.56;5087735;28;20212;-69
2023/07/12 07:35:14;;;;;;;4.38;1.42;;;;;;;23.32;100.00;96056.78;5087186;28;20208;-69
2023/07/12 07:37:42;;;;;;;2.63;1.33;;;;;;;23.81;100.00;96050.06;5086950;28;20227;-69
2023/07/12 07:40:11;;;;;;;3.88;1.35;;;;;;;23.70;100.00;96048.41;5087240;28;20304;-68
2023/07/12 07:42:37;;;;;;;2.38;1.52;;;;;;;23.69;100.00;96049.47;5087604;28;20208;-70
2023/07/12 07:45:04;;;;;;;1.75;1.50;;;;;;;23.71;100.00;96063.47;5087120;28;20199;-69
2023/07/12 07:47:31;;;;;;;4.38;1.55;;;;;;;23.66;100.00;96063.44;5086164;28;20207;-69
2023/07/12 07:49:57;;;;;;;6.55;1.90;;;;;;;23.58;100.00;96058.53;5087295;28;20771;-70
2023/07/12 07:52:24;;;;;;;4.68;1.67;;;;;;;23.50;100.00;96056.34;5087234;28;20219;-72
2023/07/12 07:54:50;;;;;;;3.70;1.85;;;;;;;23.89;100.00;96054.94;5087151;28;20204;-69
2023/07/12 07:57:18;;;;;;;3.40;1.75;;;;;;;24.16;100.00;96050.16;5086229;28;20204;-68
2023/07/12 07:59:45;;;;;;;5.65;2.95;;;;;;;23.86;100.00;96050.09;5077213;28;20247;-68
2023/07/12 08:02:11;;;;;;;3.00;1.60;;;;;;;23.74;100.00;96044.13;5064814;28;20212;-68
2023/07/12 08:04:39;;;;;;;1.58;1.10;;;;;;;23.88;100.00;96053.34;5067089;28;20627;-68
2023/07/12 08:07:06;;;;;;;2.65;1.65;;;;;;;24.29;100.00;96047.78;5065591;28;20204;-69
2023/07/12 08:09:34;;;;;;;8.10;1.88;;;;;;;24.39;100.00;96044.31;5066428;28;20319;-68
2023/07/12 08:12:01;;;;;;;3.50;1.60;;;;;;;24.26;100.00;96059.09;5066236;28;20219;-69
2023/07/12 08:14:29;;;;;;;4.60;2.08;;;;;;;24.29;100.00;96065.84;5066674;28;20219;-69
2023/07/12 08:16:56;;;;;;;3.63;1.90;;;;;;;24.33;100.00;96067.72;5065909;28;20216;-71
2023/07/12 08:19:23;;;;;;;1.92;1.20;;;;;;;24.42;100.00;96065.38;5066811;28;20290;-70
2023/07/12 08:21:50;;;;;;;3.47;1.80;;;;;;;24.41;100.00;96066.44;5066977;28;20296;-72
2023/07/12 08:24:16;;;;;;;2.45;1.38;;;;;;;24.50;100.00;96067.53;5066983;28;20266;-68
2023/07/12 08:26:43;;;;;;;10.25;2.13;;;;;;;24.46;100.00;96071.84;5066266;28;20219;-68
2023/07/12 08:29:18;;;;;;;5.35;2.03;;;;;;;24.82;100.00;96075.13;5065741;28;20303;-68
2023/07/12 08:31:45;;;;;;;3.17;1.40;;;;;;;24.87;100.00;96068.91;5066522;28;20214;-68
2023/07/12 08:34:12;;;;;;;4.15;1.48;;;;;;;24.68;100.00;96086.66;5066171;28;20208;-68
2023/07/12 08:36:38;;;;;;;2.95;1.60;;;;;;;24.68;100.00;96079.41;5065914;28;20208;-68
2023/07/12 08:39:05;;;;;;;5.07;1.75;;;;;;;24.78;100.00;96071.34;5059014;28;20256;-68
2023/07/12 08:41:31;;;;;;;4.30;1.40;;;;;;;25.06;100.00;96073.50;5057625;28;20703;-67
2023/07/12 08:43:58;;;;;;;3.78;1.90;;;;;;;24.99;100.00;96074.84;5065546;28;20204;-68
2023/07/12 08:46:26;;;;;;;2.47;1.17;;;;;;;25.44;100.00;96065.63;5065645;28;20563;-67
2023/07/12 08:48:59;;;;;;;4.63;1.70;;;;;;;25.78;100.00;96065.88;5065352;28;20255;-67
2023/07/12 08:51:28;;;;;;;4.60;1.95;;;;;;;25.83;100.00;96063.94;5065493;28;20656;-68
2023/07/12 08:53:55;;;;;;;2.83;1.55;;;;;;;25.51;100.00;96051.84;5065424;28;20211;-67
2023/07/12 08:56:22;;;;;;;4.30;1.27;;;;;;;25.80;100.00;96042.88;5065580;28;20615;-67
2023/07/12 08:58:51;;;;;;;2.72;1.63;;;;;;;25.89;100.00;96047.47;5065630;28;20624;-67
2023/07/12 09:01:33;;;;;;;6.13;2.05;;;;;;;26.19;100.00;96052.69;5065366;28;20551;-67
2023/07/12 09:04:00;;;;;;;4.68;2.10;;;;;;;26.40;100.00;96038.03;5065973;28;20216;-67
2023/07/12 09:06:27;;;;;;;5.55;2.03;;;;;;;26.09;100.00;96039.25;5065283;28;20208;-67
2023/07/12 09:08:54;;;;;;;10.27;1.70;;;;;;;26.13;100.00;96034.94;5064578;28;20236;-67
2023/07/12 09:11:27;;;;;;;3.28;1.88;;;;;;;26.56;100.00;96026.03;5065706;28;20293;-68
2023/07/12 09:13:56;;;;;;;5.75;2.50;;;;;;;26.34;100.00;96017.53;5065414;28;20204;-67
2023/07/12 09:16:25;;;;;;;4.68;2.08;;;;;;;26.23;100.00;96020.53;5065536;28;20218;-67
2023/07/12 09:18:54;;;;;;;7.13;2.13;;;;;;;26.55;100.00;96019.81;5064451;28;20232;-67
2023/07/12 09:21:24;;;;;;;3.00;1.67;;;;;;;27.09;100.00;96021.28;5065084;28;20819;-66
2023/07/12 09:23:53;;;;;;;3.45;2.13;;;;;;;26.74;100.00;96015.34;5065823;28;20212;-67
2023/07/12 09:26:23;;;;;;;4.10;1.67;;;;;;;27.03;100.00;96010.00;5065286;28;20293;-67
2023/07/12 09:28:50;;;;;;;1.60;1.45;;;;;;;26.88;100.00;96007.38;5064151;28;20239;-67
2023/07/12 09:31:22;;;;;;;7.60;1.80;;;;;;;26.86;100.00;96014.97;5064563;28;20574;-67
2023/07/12 09:33:53;;;;;;;2.92;1.27;;;;;;;27.19;100.00;96006.88;5064511;28;20212;-67
2023/07/12 09:36:19;;;;;;;4.75;2.15;;;;;;;27.08;100.00;95998.03;5064219;28;20208;-67
2023/07/12 09:38:47;;;;;;;6.38;1.83;;;;;;;27.30;100.00;96000.25;5064385;28;20231;-67
2023/07/12 09:41:19;;;;;;;4.25;1.83;;;;;;;27.36;100.00;96005.31;5064533;28;20223;-67
2023/07/12 09:43:50;;;;;;;4.40;1.83;;;;;;;27.35;100.00;95998.28;5064669;28;20661;-67
2023/07/12 09:46:28;;;;;;;5.95;2.10;;;;;;;28.06;100.00;96001.81;5064925;28;20212;-68
2023/07/12 09:49:01;;;;;;;3.92;2.10;;;;;;;27.73;100.00;96008.97;5064566;28;20235;-68
2023/07/12 09:51:30;;;;;;;3.28;1.42;;;;;;;27.48;100.00;96000.34;5065076;28;20196;-67
2023/07/12 09:54:03;;;;;;;5.60;2.20;;;;;;;27.88;100.00;95997.97;5065198;28;20227;-67
2023/07/12 09:56:39;;;;;;;4.40;1.90;;;;;;;27.92;100.00;95992.78;5065148;28;20205;-67
2023/07/12 09:59:12;;;;;;;4.35;1.83;;;;;;;28.56;100.00;95989.16;5064605;28;20231;-67
2023/07/12 10:01:47;;;;;;;3.22;2.15;;;;;;;28.31;100.00;95990.63;5065289;28;20309;-67
2023/07/12 10:04:40;;;;;;;4.95;1.90;;;;;;;28.66;100.00;95989.00;5064715;28;20207;-67
2023/07/12 10:07:15;;;;;;;5.03;2.17;;;;;;;28.23;100.00;96000.22;5063866;28;20231;-67
2023/07/12 10:09:47;;;;;;;3.35;1.80;;;;;;;28.13;97.75;96005.78;5065291;28;20224;-67
2023/07/12 10:12:23;;;;;;;4.47;2.03;;;;;;;28.20;99.45;96008.97;5064513;28;20228;-66
2023/07/12 10:14:52;;;;;;;3.30;2.00;;;;;;;28.16;96.06;96007.13;5064940;28;20299;-67
2023/07/12 10:17:24;;;;;;;4.68;2.08;;;;;;;27.92;98.42;96009.03;5063592;28;20208;-67
2023/07/12 10:19:54;;;;;;;6.75;2.08;;;;;;;28.26;94.49;96006.97;5061989;28;20237;-67
2023/07/12 10:22:28;;;;;;;2.55;1.67;;;;;;;28.68;98.48;96008.50;5045390;28;20237;-67
2023/07/12 10:24:59;;;;;;;4.50;2.33;;;;;;;29.32;95.19;96003.94;5044944;28;20213;-67
2023/07/12 10:27:31;;;;;;;5.15;1.73;;;;;;;29.24;93.62;96001.06;5083957;28;20210;-67
2023/07/12 10:30:02;;;;;;;3.50;1.98;;;;;;;29.45;97.32;96003.13;5085096;28;20234;-67
2023/07/12 10:32:36;;;;;;;3.08;2.22;;;;;;;29.73;93.46;95993.91;5085351;28;20207;-67
2023/07/12 10:35:14;;;;;;;4.03;2.20;;;;;;;30.17;91.79;95992.19;5085043;28;20211;-67
2023/07/12 10:37:46;;;;;;;4.07;1.92;;;;;;;30.07;85.43;95994.34;5084268;28;20227;-67
2023/07/12 10:40:17;;;;;;;11.70;2.28;;;;;;;30.28;86.37;96001.72;5084783;28;20228;-67
2023/07/12 10:42:49;;;;;;;3.95;1.80;;;;;;;30.28;84.98;95999.81;5084828;28;20203;-67
2023/07/12 10:45:21;;;;;;;4.40;1.98;;;;;;;29.84;88.00;95998.84;5085247;28;20235;-66
2023/07/12 10:47:49;;;;;;;3.92;1.92;;;;;;;29.62;89.78;95990.59;5084352;28;20212;-67
2023/07/12 10:50:25;;;;;;;3.53;2.30;;;;;;;29.35;90.60;95997.09;5085007;28;20209;-67
2023/07/12 10:52:59;;;;;;;4.43;2.33;;;;;;;29.40;89.73;95994.28;5084569;28;20199;-67
2023/07/12 10:55:40;;;;;;;3.28;1.70;;;;;;;29.38;89.77;95994.59;5084886;28;20213;-67
2023/07/12 10:58:25;;;;;;;3.47;1.90;;;;;;;29.21;87.40;96004.38;5083692;28;20211;-66
2023/07/12 11:00:54;;;;;;;5.93;2.63;;;;;;;29.30;88.08;95994.44;5084855;28;20654;-67
2023/07/12 11:03:31;;;;;;;6.65;2.72;;;;;;;29.53;87.52;95982.63;5084764;28;20211;-67
2023/07/12 11:06:06;;;;;;;3.35;2.25;;;;;;;28.95;89.21;95989.66;5088456;28;20207;-67
2023/07/12 11:08:45;;;;;;;5.88;2.72;;;;;;;28.96;89.73;95994.78;5087681;28;20231;-67
2023/07/12 11:11:34;;;;;;;4.50;2.10;;;;;;;29.23;90.34;95989.41;5088372;28;20218;-67
2023/07/12 11:14:14;;;;;;;5.15;2.00;;;;;;;28.84;89.92;95990.91;5088289;28;20203;-68
2023/07/12 11:16:50;;;;;;;3.95;2.20;;;;;;;28.86;86.62;95994.16;5088176;28;20568;-67
2023/07/12 11:19:42;;;;;;;3.95;1.80;;;;;;;28.87;84.58;95984.09;5050042;28;20225;-67
2023/07/12 11:22:14;;;;;;;4.10;2.22;;;;;;;28.84;85.34;95988.19;5047715;28;20637;-67
2023/07/12 11:24:52;;;;;;;4.45;3.05;;;;;;;29.27;84.37;95986.91;5047965;28;20300;-67
2023/07/12 11:27:39;;;;;;;7.57;2.92;;;;;;;29.33;82.94;95981.13;5052206;28;20209;-67
2023/07/12 11:30:20;;;;;;;6.97;2.13;;;;;;;29.28;82.92;95991.25;5087713;28;20230;-67
2023/07/12 11:32:48;;;;;;;4.18;2.30;;;;;;;29.34;82.94;95990.06;5087919;28;20654;-67